sensor_id;sensor_type;location;lat;lon;timestamp;P1;durP1;ratioP1;P2;durP2;ratioP2
72273;SDS011;60208;48.692;8.948;2022-08-23T00:01:36;4.90;;;3.80;;
72273;SDS011;60208;48.692;8.948;2022-08-23T00:04:07;4.53;;;3.97;;
72273;SDS011;60208;48.692;8.948;2022-08-23T00:06:39;6.50;;;3.95;;
72273;SDS011;60208;48.692;8.948;2022-08-23T00:09:06;4.65;;;3.78;;
72273;SDS011;60208;48.692;8.948;2022-08-23T00:14:07;4.75;;;3.80;;
72273;SDS011;60208;48.692;8.948;2022-08-23T00:16:38;5.00;;;3.90;;
72273;SDS011;60208;48.692;8.948;2022-08-23T00:19:05;5.65;;;3.95;;
72273;SDS011;60208;48.692;8.948;2022-08-23T00:21:31;7.45;;;3.97;;
72273;SDS011;60208;48.692;8.948;2022-08-23T00:23:57;6.57;;;3.90;;
72273;SDS011;60208;48.692;8.948;2022-08-23T00:26:22;4.50;;;3.72;;
72273;SDS011;60208;48.692;8.948;2022-08-23T00:28:48;5.47;;;4.10;;
72273;SDS011;60208;48.692;8.948;2022-08-23T00:31:14;4.32;;;3.92;;
72273;SDS011;60208;48.692;8.948;2022-08-23T00:33:40;5.22;;;4.28;;
72273;SDS011;60208;48.692;8.948;2022-08-23T00:36:05;8.35;;;4.50;;
72273;SDS011;60208;48.692;8.948;2022-08-23T00:38:31;5.30;;;4.63;;
72273;SDS011;60208;48.692;8.948;2022-08-23T00:40:56;7.78;;;4.28;;
72273;SDS011;60208;48.692;8.948;2022-08-23T00:43:26;5.78;;;4.45;;
72273;SDS011;60208;48.692;8.948;2022-08-23T00:49:15;6.20;;;4.80;;
72273;SDS011;60208;48.692;8.948;2022-08-23T00:51:53;8.30;;;4.85;;
72273;SDS011;60208;48.692;8.948;2022-08-23T00:54:41;7.82;;;4.43;;
72273;SDS011;60208;48.692;8.948;2022-08-23T00:57:08;6.63;;;4.22;;
72273;SDS011;60208;48.692;8.948;2022-08-23T00:59:36;7.63;;;4.53;;
72273;SDS011;60208;48.692;8.948;2022-08-23T01:02:02;5.38;;;4.47;;
72273;SDS011;60208;48.692;8.948;2022-08-23T01:04:30;6.22;;;4.65;;
72273;SDS011;60208;48.692;8.948;2022-08-23T01:07:22;6.35;;;4.50;;
72273;SDS011;60208;48.692;8.948;2022-08-23T01:10:18;5.28;;;4.70;;
72273;SDS011;60208;48.692;8.948;2022-08-23T01:12:49;5.63;;;4.78;;
72273;SDS011;60208;48.692;8.948;2022-08-23T01:15:33;4.33;;;3.93;;
72273;SDS011;60208;48.692;8.948;2022-08-23T01:18:04;6.05;;;4.32;;
72273;SDS011;60208;48.692;8.948;2022-08-23T01:20:38;5.35;;;4.10;;
72273;SDS011;60208;48.692;8.948;2022-08-23T01:23:17;5.80;;;4.50;;
72273;SDS011;60208;48.692;8.948;2022-08-23T01:25:46;6.43;;;4.38;;
72273;SDS011;60208;48.692;8.948;2022-08-23T01:28:11;4.90;;;4.43;;
72273;SDS011;60208;48.692;8.948;2022-08-23T01:30:36;4.78;;;4.38;;
72273;SDS011;60208;48.692;8.948;2022-08-23T01:33:03;5.53;;;4.78;;
72273;SDS011;60208;48.692;8.948;2022-08-23T01:35:40;8.88;;;5.10;;
72273;SDS011;60208;48.692;8.948;2022-08-23T01:38:08;5.72;;;5.03;;
72273;SDS011;60208;48.692;8.948;2022-08-23T01:40:34;8.52;;;5.00;;
72273;SDS011;60208;48.692;8.948;2022-08-23T01:43:01;5.75;;;4.80;;
72273;SDS011;60208;48.692;8.948;2022-08-23T01:45:27;6.82;;;5.28;;
72273;SDS011;60208;48.692;8.948;2022-08-23T01:47:53;6.13;;;5.15;;
72273;SDS011;60208;48.692;8.948;2022-08-23T01:50:19;6.35;;;5.03;;
72273;SDS011;60208;48.692;8.948;2022-08-23T01:52:44;5.72;;;4.75;;
72273;SDS011;60208;48.692;8.948;2022-08-23T01:55:10;6.07;;;4.63;;
72273;SDS011;60208;48.692;8.948;2022-08-23T01:57:36;6.35;;;4.95;;
72273;SDS011;60208;48.692;8.948;2022-08-23T02:00:04;6.85;;;4.88;;
72273;SDS011;60208;48.692;8.948;2022-08-23T02:02:30;6.82;;;5.28;;
72273;SDS011;60208;48.692;8.948;2022-08-23T02:04:55;7.85;;;5.20;;
72273;SDS011;60208;48.692;8.948;2022-08-23T02:07:24;7.65;;;5.20;;
72273;SDS011;60208;48.692;8.948;2022-08-23T02:09:50;6.63;;;4.90;;
72273;SDS011;60208;48.692;8.948;2022-08-23T02:12:16;10.60;;;5.40;;
72273;SDS011;60208;48.692;8.948;2022-08-23T02:14:41;6.95;;;5.35;;
72273;SDS011;60208;48.692;8.948;2022-08-23T02:17:07;8.57;;;5.60;;
72273;SDS011;60208;48.692;8.948;2022-08-23T02:19:33;7.55;;;5.68;;
72273;SDS011;60208;48.692;8.948;2022-08-23T02:21:59;8.50;;;5.18;;
72273;SDS011;60208;48.692;8.948;2022-08-23T02:24:24;6.50;;;5.38;;
72273;SDS011;60208;48.692;8.948;2022-08-23T02:26:52;6.72;;;5.05;;
72273;SDS011;60208;48.692;8.948;2022-08-23T02:29:21;6.75;;;5.30;;
72273;SDS011;60208;48.692;8.948;2022-08-23T02:31:47;8.18;;;5.30;;
72273;SDS011;60208;48.692;8.948;2022-08-23T02:34:13;8.63;;;5.35;;
72273;SDS011;60208;48.692;8.948;2022-08-23T02:36:39;6.72;;;5.68;;
72273;SDS011;60208;48.692;8.948;2022-08-23T02:39:06;8.75;;;6.00;;
72273;SDS011;60208;48.692;8.948;2022-08-23T02:41:32;7.30;;;6.00;;
72273;SDS011;60208;48.692;8.948;2022-08-23T02:43:58;7.22;;;5.68;;
72273;SDS011;60208;48.692;8.948;2022-08-23T02:46:24;8.68;;;5.78;;
72273;SDS011;60208;48.692;8.948;2022-08-23T02:48:50;7.05;;;5.88;;
72273;SDS011;60208;48.692;8.948;2022-08-23T02:51:16;7.07;;;5.60;;
72273;SDS011;60208;48.692;8.948;2022-08-23T02:53:42;6.82;;;5.25;;
72273;SDS011;60208;48.692;8.948;2022-08-23T02:56:08;5.88;;;5.28;;
72273;SDS011;60208;48.692;8.948;2022-08-23T02:58:34;6.78;;;5.35;;
72273;SDS011;60208;48.692;8.948;2022-08-23T03:00:59;6.10;;;5.50;;
72273;SDS011;60208;48.692;8.948;2022-08-23T03:03:25;6.75;;;5.40;;
72273;SDS011;60208;48.692;8.948;2022-08-23T03:05:50;6.10;;;5.43;;
72273;SDS011;60208;48.692;8.948;2022-08-23T03:08:16;6.55;;;5.63;;
72273;SDS011;60208;48.692;8.948;2022-08-23T03:10:42;7.07;;;5.32;;
72273;SDS011;60208;48.692;8.948;2022-08-23T03:13:09;5.85;;;5.32;;
72273;SDS011;60208;48.692;8.948;2022-08-23T03:15:34;7.10;;;5.32;;
72273;SDS011;60208;48.692;8.948;2022-08-23T03:17:59;7.25;;;5.15;;
72273;SDS011;60208;48.692;8.948;2022-08-23T03:20:25;6.63;;;5.20;;
72273;SDS011;60208;48.692;8.948;2022-08-23T03:22:51;6.45;;;4.88;;
72273;SDS011;60208;48.692;8.948;2022-08-23T03:25:16;6.47;;;4.85;;
72273;SDS011;60208;48.692;8.948;2022-08-23T03:27:41;10.40;;;5.43;;
72273;SDS011;60208;48.692;8.948;2022-08-23T03:30:07;7.25;;;5.40;;
72273;SDS011;60208;48.692;8.948;2022-08-23T03:32:33;6.65;;;5.30;;
72273;SDS011;60208;48.692;8.948;2022-08-23T03:34:58;6.50;;;5.35;;
72273;SDS011;60208;48.692;8.948;2022-08-23T03:37:24;6.82;;;5.45;;
72273;SDS011;60208;48.692;8.948;2022-08-23T03:39:49;6.10;;;5.50;;
72273;SDS011;60208;48.692;8.948;2022-08-23T03:42:16;7.45;;;5.40;;
72273;SDS011;60208;48.692;8.948;2022-08-23T03:44:41;6.90;;;5.70;;
72273;SDS011;60208;48.692;8.948;2022-08-23T03:47:07;8.23;;;5.70;;
72273;SDS011;60208;48.692;8.948;2022-08-23T03:49:32;6.25;;;5.50;;
72273;SDS011;60208;48.692;8.948;2022-08-23T03:51:58;8.98;;;5.50;;
72273;SDS011;60208;48.692;8.948;2022-08-23T03:54:24;7.75;;;5.68;;
72273;SDS011;60208;48.692;8.948;2022-08-23T03:57:04;9.48;;;6.32;;
72273;SDS011;60208;48.692;8.948;2022-08-23T03:59:32;8.10;;;6.20;;
72273;SDS011;60208;48.692;8.948;2022-08-23T04:01:58;7.22;;;5.65;;
72273;SDS011;60208;48.692;8.948;2022-08-23T04:04:23;9.32;;;5.93;;
72273;SDS011;60208;48.692;8.948;2022-08-23T04:06:49;7.95;;;6.38;;
72273;SDS011;60208;48.692;8.948;2022-08-23T04:09:15;7.05;;;6.13;;
72273;SDS011;60208;48.692;8.948;2022-08-23T04:11:41;6.05;;;5.22;;
72273;SDS011;60208;48.692;8.948;2022-08-23T04:14:07;6.47;;;5.82;;
72273;SDS011;60208;48.692;8.948;2022-08-23T04:16:33;6.70;;;5.72;;
72273;SDS011;60208;48.692;8.948;2022-08-23T04:19:11;7.18;;;5.70;;
72273;SDS011;60208;48.692;8.948;2022-08-23T04:21:37;8.25;;;6.05;;
72273;SDS011;60208;48.692;8.948;2022-08-23T04:24:04;6.53;;;5.93;;
72273;SDS011;60208;48.692;8.948;2022-08-23T04:26:29;6.70;;;6.00;;
72273;SDS011;60208;48.692;8.948;2022-08-23T04:28:55;6.20;;;5.60;;
72273;SDS011;60208;48.692;8.948;2022-08-23T04:31:20;8.02;;;6.40;;
72273;SDS011;60208;48.692;8.948;2022-08-23T04:33:46;8.30;;;6.10;;
72273;SDS011;60208;48.692;8.948;2022-08-23T04:36:11;7.32;;;6.05;;
72273;SDS011;60208;48.692;8.948;2022-08-23T04:38:37;6.90;;;5.68;;
72273;SDS011;60208;48.692;8.948;2022-08-23T04:41:03;6.75;;;5.63;;
72273;SDS011;60208;48.692;8.948;2022-08-23T04:43:47;6.40;;;5.50;;
72273;SDS011;60208;48.692;8.948;2022-08-23T04:46:13;7.63;;;5.65;;
72273;SDS011;60208;48.692;8.948;2022-08-23T04:48:39;6.35;;;5.40;;
72273;SDS011;60208;48.692;8.948;2022-08-23T04:51:06;7.10;;;5.57;;
72273;SDS011;60208;48.692;8.948;2022-08-23T04:53:31;5.70;;;5.20;;
72273;SDS011;60208;48.692;8.948;2022-08-23T04:55:59;7.78;;;5.45;;
72273;SDS011;60208;48.692;8.948;2022-08-23T04:58:26;6.30;;;5.25;;
72273;SDS011;60208;48.692;8.948;2022-08-23T05:00:52;8.40;;;5.60;;
72273;SDS011;60208;48.692;8.948;2022-08-23T05:03:17;9.23;;;5.55;;
72273;SDS011;60208;48.692;8.948;2022-08-23T05:05:43;8.95;;;5.28;;
72273;SDS011;60208;48.692;8.948;2022-08-23T05:08:09;9.73;;;5.57;;
72273;SDS011;60208;48.692;8.948;2022-08-23T05:10:35;9.27;;;5.43;;
72273;SDS011;60208;48.692;8.948;2022-08-23T05:13:00;6.20;;;5.43;;
72273;SDS011;60208;48.692;8.948;2022-08-23T05:15:26;5.90;;;5.03;;
72273;SDS011;60208;48.692;8.948;2022-08-23T05:17:51;6.35;;;5.40;;
72273;SDS011;60208;48.692;8.948;2022-08-23T05:20:17;9.05;;;5.50;;
72273;SDS011;60208;48.692;8.948;2022-08-23T05:22:42;5.32;;;4.85;;
72273;SDS011;60208;48.692;8.948;2022-08-23T05:25:08;7.25;;;5.20;;
72273;SDS011;60208;48.692;8.948;2022-08-23T05:27:34;6.60;;;5.15;;
72273;SDS011;60208;48.692;8.948;2022-08-23T05:30:00;7.80;;;4.82;;
72273;SDS011;60208;48.692;8.948;2022-08-23T05:32:25;6.50;;;4.70;;
72273;SDS011;60208;48.692;8.948;2022-08-23T05:34:50;5.88;;;4.90;;
72273;SDS011;60208;48.692;8.948;2022-08-23T05:37:16;5.72;;;5.05;;
72273;SDS011;60208;48.692;8.948;2022-08-23T05:39:42;8.82;;;5.30;;
72273;SDS011;60208;48.692;8.948;2022-08-23T05:42:08;6.65;;;4.63;;
72273;SDS011;60208;48.692;8.948;2022-08-23T05:44:36;6.28;;;5.28;;
72273;SDS011;60208;48.692;8.948;2022-08-23T05:47:05;14.73;;;5.57;;
72273;SDS011;60208;48.692;8.948;2022-08-23T05:49:33;16.60;;;5.65;;
72273;SDS011;60208;48.692;8.948;2022-08-23T05:52:01;9.18;;;5.25;;
72273;SDS011;60208;48.692;8.948;2022-08-23T05:54:28;10.88;;;5.38;;
72273;SDS011;60208;48.692;8.948;2022-08-23T05:56:53;9.68;;;5.20;;
72273;SDS011;60208;48.692;8.948;2022-08-23T05:59:19;11.90;;;4.90;;
72273;SDS011;60208;48.692;8.948;2022-08-23T06:01:44;13.30;;;5.18;;
72273;SDS011;60208;48.692;8.948;2022-08-23T06:04:10;13.00;;;5.55;;
72273;SDS011;60208;48.692;8.948;2022-08-23T06:06:36;11.35;;;5.47;;
72273;SDS011;60208;48.692;8.948;2022-08-23T06:09:03;11.73;;;5.22;;
72273;SDS011;60208;48.692;8.948;2022-08-23T06:11:30;12.13;;;5.80;;
72273;SDS011;60208;48.692;8.948;2022-08-23T06:13:57;12.43;;;5.50;;
72273;SDS011;60208;48.692;8.948;2022-08-23T06:16:26;15.35;;;5.72;;
72273;SDS011;60208;48.692;8.948;2022-08-23T06:18:53;16.42;;;5.75;;
72273;SDS011;60208;48.692;8.948;2022-08-23T06:21:20;13.68;;;5.90;;
72273;SDS011;60208;48.692;8.948;2022-08-23T06:23:45;12.30;;;5.35;;
72273;SDS011;60208;48.692;8.948;2022-08-23T06:26:14;10.80;;;5.35;;
72273;SDS011;60208;48.692;8.948;2022-08-23T06:28:44;12.45;;;5.53;;
72273;SDS011;60208;48.692;8.948;2022-08-23T06:31:10;9.93;;;5.10;;
72273;SDS011;60208;48.692;8.948;2022-08-23T06:33:36;12.05;;;5.30;;
72273;SDS011;60208;48.692;8.948;2022-08-23T06:36:04;11.38;;;6.00;;
72273;SDS011;60208;48.692;8.948;2022-08-23T06:38:31;13.00;;;5.20;;
72273;SDS011;60208;48.692;8.948;2022-08-23T06:40:59;8.38;;;5.10;;
72273;SDS011;60208;48.692;8.948;2022-08-23T06:43:31;10.60;;;5.32;;
72273;SDS011;60208;48.692;8.948;2022-08-23T06:46:10;9.63;;;5.13;;
72273;SDS011;60208;48.692;8.948;2022-08-23T06:48:37;7.25;;;5.20;;
72273;SDS011;60208;48.692;8.948;2022-08-23T06:51:14;9.48;;;5.05;;
72273;SDS011;60208;48.692;8.948;2022-08-23T06:53:44;8.63;;;4.82;;
72273;SDS011;60208;48.692;8.948;2022-08-23T06:56:10;8.27;;;4.78;;
72273;SDS011;60208;48.692;8.948;2022-08-23T06:58:35;8.27;;;4.75;;
72273;SDS011;60208;48.692;8.948;2022-08-23T07:01:08;7.50;;;4.55;;
72273;SDS011;60208;48.692;8.948;2022-08-23T07:03:34;8.55;;;4.78;;
72273;SDS011;60208;48.692;8.948;2022-08-23T07:06:00;11.30;;;4.45;;
72273;SDS011;60208;48.692;8.948;2022-08-23T07:08:25;8.68;;;4.70;;
72273;SDS011;60208;48.692;8.948;2022-08-23T07:10:53;7.35;;;4.55;;
72273;SDS011;60208;48.692;8.948;2022-08-23T07:13:20;6.40;;;4.55;;
72273;SDS011;60208;48.692;8.948;2022-08-23T07:15:45;13.68;;;4.75;;
72273;SDS011;60208;48.692;8.948;2022-08-23T07:18:11;6.07;;;4.30;;
72273;SDS011;60208;48.692;8.948;2022-08-23T07:20:37;11.77;;;4.55;;
72273;SDS011;60208;48.692;8.948;2022-08-23T07:23:02;5.47;;;4.00;;
72273;SDS011;60208;48.692;8.948;2022-08-23T07:25:28;8.18;;;3.95;;
72273;SDS011;60208;48.692;8.948;2022-08-23T07:27:53;8.15;;;4.00;;
72273;SDS011;60208;48.692;8.948;2022-08-23T07:30:19;10.00;;;3.67;;
72273;SDS011;60208;48.692;8.948;2022-08-23T07:32:44;5.55;;;3.10;;
72273;SDS011;60208;48.692;8.948;2022-08-23T07:35:10;8.57;;;2.85;;
72273;SDS011;60208;48.692;8.948;2022-08-23T07:37:35;12.05;;;3.13;;
72273;SDS011;60208;48.692;8.948;2022-08-23T07:40:02;8.73;;;3.10;;
72273;SDS011;60208;48.692;8.948;2022-08-23T07:42:28;8.73;;;3.13;;
72273;SDS011;60208;48.692;8.948;2022-08-23T07:44:53;6.75;;;3.17;;
72273;SDS011;60208;48.692;8.948;2022-08-23T07:47:19;4.95;;;2.35;;
72273;SDS011;60208;48.692;8.948;2022-08-23T07:49:45;5.93;;;2.75;;
72273;SDS011;60208;48.692;8.948;2022-08-23T07:52:10;4.47;;;2.20;;
72273;SDS011;60208;48.692;8.948;2022-08-23T07:54:36;3.60;;;2.05;;
72273;SDS011;60208;48.692;8.948;2022-08-23T07:57:01;3.80;;;2.10;;
72273;SDS011;60208;48.692;8.948;2022-08-23T07:59:27;5.75;;;2.00;;
72273;SDS011;60208;48.692;8.948;2022-08-23T08:01:53;5.93;;;2.20;;
72273;SDS011;60208;48.692;8.948;2022-08-23T08:04:18;6.75;;;2.20;;
72273;SDS011;60208;48.692;8.948;2022-08-23T08:06:45;6.57;;;2.00;;
72273;SDS011;60208;48.692;8.948;2022-08-23T08:09:13;3.33;;;2.05;;
72273;SDS011;60208;48.692;8.948;2022-08-23T08:11:40;12.82;;;2.20;;
72273;SDS011;60208;48.692;8.948;2022-08-23T08:14:07;12.65;;;2.40;;
72273;SDS011;60208;48.692;8.948;2022-08-23T08:16:36;12.88;;;2.30;;
72273;SDS011;60208;48.692;8.948;2022-08-23T08:19:03;6.97;;;2.17;;
72273;SDS011;60208;48.692;8.948;2022-08-23T08:21:30;14.63;;;2.40;;
72273;SDS011;60208;48.692;8.948;2022-08-23T08:23:56;11.35;;;2.17;;
72273;SDS011;60208;48.692;8.948;2022-08-23T08:26:22;3.92;;;1.85;;
72273;SDS011;60208;48.692;8.948;2022-08-23T08:28:48;4.55;;;2.47;;
72273;SDS011;60208;48.692;8.948;2022-08-23T08:31:14;3.85;;;2.30;;
72273;SDS011;60208;48.692;8.948;2022-08-23T08:33:40;4.20;;;2.15;;
72273;SDS011;60208;48.692;8.948;2022-08-23T08:36:06;3.42;;;2.00;;
72273;SDS011;60208;48.692;8.948;2022-08-23T08:38:33;2.53;;;1.73;;
72273;SDS011;60208;48.692;8.948;2022-08-23T08:41:10;2.88;;;1.77;;
72273;SDS011;60208;48.692;8.948;2022-08-23T08:46:22;4.70;;;1.90;;
72273;SDS011;60208;48.692;8.948;2022-08-23T08:48:53;2.95;;;1.88;;
72273;SDS011;60208;48.692;8.948;2022-08-23T08:51:43;3.63;;;1.92;;
72273;SDS011;60208;48.692;8.948;2022-08-23T08:54:16;3.38;;;1.83;;
72273;SDS011;60208;48.692;8.948;2022-08-23T08:56:45;3.22;;;1.90;;
72273;SDS011;60208;48.692;8.948;2022-08-23T08:59:13;3.20;;;1.80;;
72273;SDS011;60208;48.692;8.948;2022-08-23T09:01:44;4.18;;;1.90;;
72273;SDS011;60208;48.692;8.948;2022-08-23T09:04:09;2.25;;;1.60;;
72273;SDS011;60208;48.692;8.948;2022-08-23T09:17:05;3.28;;;1.60;;
72273;SDS011;60208;48.692;8.948;2022-08-23T09:19:38;3.70;;;1.65;;
72273;SDS011;60208;48.692;8.948;2022-08-23T09:22:11;4.40;;;1.70;;
72273;SDS011;60208;48.692;8.948;2022-08-23T09:24:38;4.53;;;1.60;;
72273;SDS011;60208;48.692;8.948;2022-08-23T09:27:05;3.80;;;1.80;;
72273;SDS011;60208;48.692;8.948;2022-08-23T09:29:33;3.50;;;1.75;;
72273;SDS011;60208;48.692;8.948;2022-08-23T09:32:46;2.50;;;1.40;;
72273;SDS011;60208;48.692;8.948;2022-08-23T09:34:50;2.85;;;2.10;;
72273;SDS011;60208;48.692;8.948;2022-08-23T09:39:50;2.55;;;1.30;;
72273;SDS011;60208;48.692;8.948;2022-08-23T09:42:29;2.42;;;1.40;;
72273;SDS011;60208;48.692;8.948;2022-08-23T09:44:56;2.72;;;1.23;;
72273;SDS011;60208;48.692;8.948;2022-08-23T09:47:29;1.75;;;1.30;;
72273;SDS011;60208;48.692;8.948;2022-08-23T09:49:55;3.53;;;1.33;;
72273;SDS011;60208;48.692;8.948;2022-08-23T09:52:33;1.80;;;1.33;;
72273;SDS011;60208;48.692;8.948;2022-08-23T09:55:08;2.22;;;1.40;;
72273;SDS011;60208;48.692;8.948;2022-08-23T09:57:36;3.08;;;1.40;;
72273;SDS011;60208;48.692;8.948;2022-08-23T10:02:51;2.58;;;1.50;;
72273;SDS011;60208;48.692;8.948;2022-08-23T10:05:37;3.38;;;1.50;;
72273;SDS011;60208;48.692;8.948;2022-08-23T10:08:04;3.75;;;1.40;;
72273;SDS011;60208;48.692;8.948;2022-08-23T10:13:07;4.28;;;1.38;;
72273;SDS011;60208;48.692;8.948;2022-08-23T10:18:12;5.30;;;1.80;;
72273;SDS011;60208;48.692;8.948;2022-08-23T10:21:00;2.10;;;1.13;;
72273;SDS011;60208;48.692;8.948;2022-08-23T10:26:30;1.70;;;1.10;;
72273;SDS011;60208;48.692;8.948;2022-08-23T10:40:18;2.38;;;1.30;;
72273;SDS011;60208;48.692;8.948;2022-08-23T10:50:44;2.47;;;1.80;;
72273;SDS011;60208;48.692;8.948;2022-08-23T10:53:14;1.38;;;1.27;;
72273;SDS011;60208;48.692;8.948;2022-08-23T10:55:59;3.90;;;1.10;;
72273;SDS011;60208;48.692;8.948;2022-08-23T10:58:51;1.63;;;1.00;;
72273;SDS011;60208;48.692;8.948;2022-08-23T11:01:18;1.63;;;1.08;;
72273;SDS011;60208;48.692;8.948;2022-08-23T11:03:59;2.47;;;1.25;;
72273;SDS011;60208;48.692;8.948;2022-08-23T11:14:24;2.75;;;1.30;;
72273;SDS011;60208;48.692;8.948;2022-08-23T11:16:57;1.88;;;1.10;;
72273;SDS011;60208;48.692;8.948;2022-08-23T11:22:24;1.80;;;1.10;;
72273;SDS011;60208;48.692;8.948;2022-08-23T11:27:26;1.88;;;1.20;;
72273;SDS011;60208;48.692;8.948;2022-08-23T11:35:51;5.72;;;1.00;;
72273;SDS011;60208;48.692;8.948;2022-08-23T11:57:34;1.63;;;1.05;;
72273;SDS011;60208;48.692;8.948;2022-08-23T12:02:49;2.03;;;1.00;;
72273;SDS011;60208;48.692;8.948;2022-08-23T12:07:53;1.67;;;1.10;;
72273;SDS011;60208;48.692;8.948;2022-08-23T12:18:27;1.30;;;0.90;;
72273;SDS011;60208;48.692;8.948;2022-08-23T12:20:58;2.80;;;1.00;;
72273;SDS011;60208;48.692;8.948;2022-08-23T12:23:25;2.92;;;1.10;;
72273;SDS011;60208;48.692;8.948;2022-08-23T12:28:55;1.67;;;1.00;;
72273;SDS011;60208;48.692;8.948;2022-08-23T12:31:27;1.30;;;0.90;;
72273;SDS011;60208;48.692;8.948;2022-08-23T12:36:35;3.50;;;1.00;;
72273;SDS011;60208;48.692;8.948;2022-08-23T12:44:19;1.70;;;0.90;;
72273;SDS011;60208;48.692;8.948;2022-08-23T12:49:24;1.13;;;0.90;;
72273;SDS011;60208;48.692;8.948;2022-08-23T12:51:51;1.33;;;1.00;;
72273;SDS011;60208;48.692;8.948;2022-08-23T12:54:22;1.92;;;1.00;;
72273;SDS011;60208;48.692;8.948;2022-08-23T12:56:55;2.63;;;0.90;;
72273;SDS011;60208;48.692;8.948;2022-08-23T12:59:34;1.63;;;1.00;;
72273;SDS011;60208;48.692;8.948;2022-08-23T13:02:04;1.98;;;0.90;;
72273;SDS011;60208;48.692;8.948;2022-08-23T13:04:35;5.55;;;1.05;;
72273;SDS011;60208;48.692;8.948;2022-08-23T13:07:03;1.52;;;1.10;;
72273;SDS011;60208;48.692;8.948;2022-08-23T13:09:33;2.13;;;1.00;;
72273;SDS011;60208;48.692;8.948;2022-08-23T13:12:01;2.22;;;1.10;;
72273;SDS011;60208;48.692;8.948;2022-08-23T13:22:31;3.00;;;2.10;;
72273;SDS011;60208;48.692;8.948;2022-08-23T13:27:33;1.60;;;1.20;;
72273;SDS011;60208;48.692;8.948;2022-08-23T13:32:41;3.15;;;1.20;;
72273;SDS011;60208;48.692;8.948;2022-08-23T13:35:40;2.95;;;1.23;;
72273;SDS011;60208;48.692;8.948;2022-08-23T13:45:51;1.30;;;0.90;;
72273;SDS011;60208;48.692;8.948;2022-08-23T13:48:21;1.60;;;1.17;;
72273;SDS011;60208;48.692;8.948;2022-08-23T13:50:48;1.80;;;1.35;;
72273;SDS011;60208;48.692;8.948;2022-08-23T13:53:14;2.88;;;1.45;;
72273;SDS011;60208;48.692;8.948;2022-08-23T13:55:48;3.25;;;1.38;;
72273;SDS011;60208;48.692;8.948;2022-08-23T13:58:22;3.63;;;1.40;;
72273;SDS011;60208;48.692;8.948;2022-08-23T14:00:49;2.97;;;1.35;;
72273;SDS011;60208;48.692;8.948;2022-08-23T14:03:15;2.15;;;1.00;;
72273;SDS011;60208;48.692;8.948;2022-08-23T14:05:40;4.07;;;1.17;;
72273;SDS011;60208;48.692;8.948;2022-08-23T14:08:06;2.33;;;1.20;;
72273;SDS011;60208;48.692;8.948;2022-08-23T14:10:33;1.23;;;1.00;;
72273;SDS011;60208;48.692;8.948;2022-08-23T14:12:58;5.95;;;1.33;;
72273;SDS011;60208;48.692;8.948;2022-08-23T14:15:26;1.63;;;1.20;;
72273;SDS011;60208;48.692;8.948;2022-08-23T14:17:52;2.55;;;1.20;;
72273;SDS011;60208;48.692;8.948;2022-08-23T14:20:18;3.42;;;1.30;;
72273;SDS011;60208;48.692;8.948;2022-08-23T14:22:44;2.67;;;1.65;;
72273;SDS011;60208;48.692;8.948;2022-08-23T14:25:10;1.63;;;1.00;;
72273;SDS011;60208;48.692;8.948;2022-08-23T14:27:37;1.98;;;1.20;;
72273;SDS011;60208;48.692;8.948;2022-08-23T14:30:04;2.80;;;1.20;;
72273;SDS011;60208;48.692;8.948;2022-08-23T14:32:30;1.55;;;1.10;;
72273;SDS011;60208;48.692;8.948;2022-08-23T14:34:56;2.63;;;1.08;;
72273;SDS011;60208;48.692;8.948;2022-08-23T14:37:22;3.90;;;1.42;;
72273;SDS011;60208;48.692;8.948;2022-08-23T14:39:48;1.30;;;1.00;;
72273;SDS011;60208;48.692;8.948;2022-08-23T14:42:14;1.17;;;0.90;;
72273;SDS011;60208;48.692;8.948;2022-08-23T14:44:41;2.08;;;1.30;;
72273;SDS011;60208;48.692;8.948;2022-08-23T14:47:07;2.22;;;1.10;;
72273;SDS011;60208;48.692;8.948;2022-08-23T14:49:32;3.00;;;1.20;;
72273;SDS011;60208;48.692;8.948;2022-08-23T14:51:57;2.20;;;1.30;;
72273;SDS011;60208;48.692;8.948;2022-08-23T14:54:24;1.25;;;0.90;;
72273;SDS011;60208;48.692;8.948;2022-08-23T14:56:50;1.38;;;1.00;;
72273;SDS011;60208;48.692;8.948;2022-08-23T14:59:15;1.67;;;1.00;;
72273;SDS011;60208;48.692;8.948;2022-08-23T15:01:41;2.20;;;1.20;;
72273;SDS011;60208;48.692;8.948;2022-08-23T15:04:06;3.05;;;1.20;;
72273;SDS011;60208;48.692;8.948;2022-08-23T15:06:32;1.25;;;1.10;;
72273;SDS011;60208;48.692;8.948;2022-08-23T15:08:58;2.80;;;1.30;;
72273;SDS011;60208;48.692;8.948;2022-08-23T15:11:24;2.92;;;1.38;;
72273;SDS011;60208;48.692;8.948;2022-08-23T15:13:49;2.90;;;1.00;;
72273;SDS011;60208;48.692;8.948;2022-08-23T15:16:15;2.65;;;1.17;;
72273;SDS011;60208;48.692;8.948;2022-08-23T15:18:45;2.70;;;1.20;;
72273;SDS011;60208;48.692;8.948;2022-08-23T15:21:13;3.20;;;1.40;;
72273;SDS011;60208;48.692;8.948;2022-08-23T15:23:39;1.83;;;1.17;;
72273;SDS011;60208;48.692;8.948;2022-08-23T15:26:05;2.72;;;1.50;;
72273;SDS011;60208;48.692;8.948;2022-08-23T15:28:31;2.60;;;1.38;;
72273;SDS011;60208;48.692;8.948;2022-08-23T15:30:57;2.80;;;1.30;;
72273;SDS011;60208;48.692;8.948;2022-08-23T15:33:24;3.17;;;1.40;;
72273;SDS011;60208;48.692;8.948;2022-08-23T15:35:50;2.78;;;1.30;;
72273;SDS011;60208;48.692;8.948;2022-08-23T15:38:16;3.17;;;1.60;;
72273;SDS011;60208;48.692;8.948;2022-08-23T15:40:41;2.30;;;1.70;;
72273;SDS011;60208;48.692;8.948;2022-08-23T15:43:07;3.08;;;1.40;;
72273;SDS011;60208;48.692;8.948;2022-08-23T15:45:33;4.50;;;1.50;;
72273;SDS011;60208;48.692;8.948;2022-08-23T15:47:59;2.50;;;1.40;;
72273;SDS011;60208;48.692;8.948;2022-08-23T15:50:29;2.00;;;1.27;;
72273;SDS011;60208;48.692;8.948;2022-08-23T15:52:57;3.13;;;2.13;;
72273;SDS011;60208;48.692;8.948;2022-08-23T15:55:22;4.03;;;1.75;;
72273;SDS011;60208;48.692;8.948;2022-08-23T15:57:49;2.53;;;1.60;;
72273;SDS011;60208;48.692;8.948;2022-08-23T16:00:16;1.65;;;1.33;;
72273;SDS011;60208;48.692;8.948;2022-08-23T16:02:43;1.90;;;1.20;;
72273;SDS011;60208;48.692;8.948;2022-08-23T16:05:09;2.58;;;1.33;;
72273;SDS011;60208;48.692;8.948;2022-08-23T16:07:35;6.15;;;1.55;;
72273;SDS011;60208;48.692;8.948;2022-08-23T16:10:00;2.72;;;1.40;;
72273;SDS011;60208;48.692;8.948;2022-08-23T16:12:27;3.72;;;1.17;;
72273;SDS011;60208;48.692;8.948;2022-08-23T16:14:53;3.33;;;1.55;;
72273;SDS011;60208;48.692;8.948;2022-08-23T16:17:18;2.55;;;1.52;;
72273;SDS011;60208;48.692;8.948;2022-08-23T16:19:44;2.63;;;1.48;;
72273;SDS011;60208;48.692;8.948;2022-08-23T16:22:10;2.13;;;1.20;;
72273;SDS011;60208;48.692;8.948;2022-08-23T16:24:36;4.00;;;1.55;;
72273;SDS011;60208;48.692;8.948;2022-08-23T16:27:02;3.42;;;1.55;;
72273;SDS011;60208;48.692;8.948;2022-08-23T16:29:28;4.25;;;3.28;;
72273;SDS011;60208;48.692;8.948;2022-08-23T16:31:57;4.60;;;1.50;;
72273;SDS011;60208;48.692;8.948;2022-08-23T16:34:22;1.60;;;1.50;;
72273;SDS011;60208;48.692;8.948;2022-08-23T16:36:49;4.63;;;1.43;;
72273;SDS011;60208;48.692;8.948;2022-08-23T16:39:18;2.67;;;1.40;;
72273;SDS011;60208;48.692;8.948;2022-08-23T16:41:44;2.00;;;1.15;;
72273;SDS011;60208;48.692;8.948;2022-08-23T16:44:09;4.88;;;1.40;;
72273;SDS011;60208;48.692;8.948;2022-08-23T16:46:35;2.47;;;1.50;;
72273;SDS011;60208;48.692;8.948;2022-08-23T16:49:00;1.75;;;1.30;;
72273;SDS011;60208;48.692;8.948;2022-08-23T16:51:26;1.58;;;1.30;;
72273;SDS011;60208;48.692;8.948;2022-08-23T16:53:52;3.42;;;1.35;;
72273;SDS011;60208;48.692;8.948;2022-08-23T16:56:17;1.52;;;1.33;;
72273;SDS011;60208;48.692;8.948;2022-08-23T16:58:43;3.88;;;1.50;;
72273;SDS011;60208;48.692;8.948;2022-08-23T17:01:12;3.30;;;1.50;;
72273;SDS011;60208;48.692;8.948;2022-08-23T17:03:39;1.70;;;1.50;;
72273;SDS011;60208;48.692;8.948;2022-08-23T17:06:06;4.68;;;1.60;;
72273;SDS011;60208;48.692;8.948;2022-08-23T17:08:32;4.80;;;1.88;;